MMMX/MEX METAR and TAF weather

Enter ICAO airport designator
Station Type Date Time Source
MMMX METAR 2022/05/24 11:47 UTC NOAA

MMMX 241147Z 21005KT 6SM FEW100 14/09 A3020 NOSIG RMK SLP078 57013 989 8/030 ISOL SC HZY


Station Type Date Time Source
MMMX Decoded METAR 2022/05/24 11:47 UTC NOAA

Mexico City / Licenci, Mexico (MMMX) 19-26N 099-06W
May 24, 2022 - 07:47 AM EDT / 2022.05.24 1147 UTC
Wind: from the SSW (210 degrees) at 6 MPH (5 KT):0
Visibility: 6 mile(s):0
Sky conditions: mostly clear
Temperature: 57 F (14 C)
Dew Point: 48 F (9 C)
Relative Humidity: 71%
Pressure (altimeter): 30.2 in. Hg (1022 hPa)
Pressure tendency: 0.04 inches (1.3 hPa) lower than three hours ago
ob: MMMX 241147Z 21005KT 6SM FEW100 14/09 A3020 NOSIG RMK SLP078 57013 989 8/030 ISOL SC HZY
cycle: 12

Station Type Date Time Source
MMMX TAF 2022/05/24 12:54 UTC NOAA

TAF MMMX 241052Z 2412/2518 06005KT P6SM SCT020 SCT070 TX27/2420Z TN14/2412Z
FM241800 34014KT 6SM SCT020 BKN080 OVC250
FM242200 34014KT 6SM -RA BKN020CB OVC080
TEMPO 2423/2503 2SM TSRA OVC020CB
FM250400 34010KT P6SM BKN020 BKN080
FM250700 03007KT P6SM SCT020 BKN080
FM251700 33012KT P6SM SCT025 SCT080 BKN250

Example: see airport list